sensor_id;sensor_type;location;lat;lon;timestamp;pressure;altitude;pressure_sealevel;temperature;humidity
30708;BME280;17458;48.958;8.284;2023-05-16T00:01:22;100098.28;;;17.56;72.25
30708;BME280;17458;48.958;8.284;2023-05-16T00:04:07;100100.09;;;17.57;72.39
30708;BME280;17458;48.958;8.284;2023-05-16T00:06:51;100101.09;;;17.62;72.34
30708;BME280;17458;48.958;8.284;2023-05-16T00:09:35;100094.75;;;17.58;72.21
30708;BME280;17458;48.958;8.284;2023-05-16T00:12:20;100097.13;;;17.42;72.21
30708;BME280;17458;48.958;8.284;2023-05-16T00:15:06;100087.09;;;17.31;72.17
30708;BME280;17458;48.958;8.284;2023-05-16T00:17:51;100095.50;;;17.50;72.23
30708;BME280;17458;48.958;8.284;2023-05-16T00:20:35;100091.84;;;17.46;71.89
30708;BME280;17458;48.958;8.284;2023-05-16T00:23:20;100090.91;;;17.44;71.90
30708;BME280;17458;48.958;8.284;2023-05-16T00:26:04;100093.53;;;17.41;71.92
30708;BME280;17458;48.958;8.284;2023-05-16T00:28:48;100093.53;;;17.40;72.16
30708;BME280;17458;48.958;8.284;2023-05-16T00:31:32;100086.44;;;17.45;72.42
30708;BME280;17458;48.958;8.284;2023-05-16T00:34:17;100092.03;;;17.57;72.43
30708;BME280;17458;48.958;8.284;2023-05-16T00:37:02;100099.19;;;17.56;71.94
30708;BME280;17458;48.958;8.284;2023-05-16T00:39:45;100085.69;;;17.52;71.90
30708;BME280;17458;48.958;8.284;2023-05-16T00:42:30;100094.53;;;17.46;72.01
30708;BME280;17458;48.958;8.284;2023-05-16T00:45:15;100091.63;;;17.34;72.91
30708;BME280;17458;48.958;8.284;2023-05-16T00:48:00;100096.22;;;17.41;73.15
30708;BME280;17458;48.958;8.284;2023-05-16T00:50:44;100089.94;;;17.39;73.21
30708;BME280;17458;48.958;8.284;2023-05-16T00:53:29;100099.41;;;17.19;72.91
30708;BME280;17458;48.958;8.284;2023-05-16T00:56:14;100100.13;;;16.67;75.53
30708;BME280;17458;48.958;8.284;2023-05-16T00:59:00;100106.13;;;16.97;74.64
30708;BME280;17458;48.958;8.284;2023-05-16T01:01:45;100099.44;;;17.20;73.52
30708;BME280;17458;48.958;8.284;2023-05-16T01:04:29;100098.81;;;17.35;72.56
30708;BME280;17458;48.958;8.284;2023-05-16T01:07:14;100097.06;;;17.37;72.54
30708;BME280;17458;48.958;8.284;2023-05-16T01:09:58;100100.50;;;17.30;72.51
30708;BME280;17458;48.958;8.284;2023-05-16T01:12:49;100100.72;;;17.42;72.70
30708;BME280;17458;48.958;8.284;2023-05-16T01:16:04;100104.31;;;17.43;72.72
30708;BME280;17458;48.958;8.284;2023-05-16T01:19:13;100101.75;;;17.49;72.15
30708;BME280;17458;48.958;8.284;2023-05-16T01:22:15;100090.97;;;17.47;72.31
30708;BME280;17458;48.958;8.284;2023-05-16T01:25:21;100101.59;;;17.40;72.41
30708;BME280;17458;48.958;8.284;2023-05-16T01:28:12;100100.56;;;17.33;72.66
30708;BME280;17458;48.958;8.284;2023-05-16T01:30:56;100102.34;;;17.32;72.70
30708;BME280;17458;48.958;8.284;2023-05-16T01:33:40;100099.47;;;17.22;71.59
30708;BME280;17458;48.958;8.284;2023-05-16T01:36:29;100097.91;;;17.34;71.66
30708;BME280;17458;48.958;8.284;2023-05-16T01:39:31;100102.84;;;17.13;70.57
30708;BME280;17458;48.958;8.284;2023-05-16T01:42:18;100109.53;;;16.90;70.95
30708;BME280;17458;48.958;8.284;2023-05-16T01:45:11;100099.09;;;17.04;70.36
30708;BME280;17458;48.958;8.284;2023-05-16T01:48:02;100097.63;;;17.19;69.82
30708;BME280;17458;48.958;8.284;2023-05-16T01:50:54;100101.28;;;17.23;69.43
30708;BME280;17458;48.958;8.284;2023-05-16T01:53:39;100105.75;;;17.24;70.24
30708;BME280;17458;48.958;8.284;2023-05-16T01:56:24;100102.25;;;17.26;69.45
30708;BME280;17458;48.958;8.284;2023-05-16T01:59:10;100107.59;;;17.28;69.97
30708;BME280;17458;48.958;8.284;2023-05-16T02:01:58;100106.84;;;17.33;70.73
30708;BME280;17458;48.958;8.284;2023-05-16T02:04:42;100114.91;;;17.35;70.89
30708;BME280;17458;48.958;8.284;2023-05-16T02:07:26;100112.25;;;17.36;70.91
30708;BME280;17458;48.958;8.284;2023-05-16T02:10:11;100106.91;;;17.36;70.34
30708;BME280;17458;48.958;8.284;2023-05-16T02:12:56;100113.00;;;17.29;69.62
30708;BME280;17458;48.958;8.284;2023-05-16T02:15:40;100109.88;;;17.52;70.37
30708;BME280;17458;48.958;8.284;2023-05-16T02:18:24;100116.03;;;17.48;70.14
30708;BME280;17458;48.958;8.284;2023-05-16T02:21:09;100121.22;;;17.37;69.18
30708;BME280;17458;48.958;8.284;2023-05-16T02:23:53;100124.63;;;17.28;68.73
30708;BME280;17458;48.958;8.284;2023-05-16T02:26:37;100113.94;;;17.31;68.73
30708;BME280;17458;48.958;8.284;2023-05-16T02:29:21;100116.50;;;17.24;68.22
30708;BME280;17458;48.958;8.284;2023-05-16T02:32:05;100114.38;;;17.08;67.07
30708;BME280;17458;48.958;8.284;2023-05-16T02:34:49;100118.94;;;17.13;66.27
30708;BME280;17458;48.958;8.284;2023-05-16T02:37:33;100116.47;;;17.22;66.33
30708;BME280;17458;48.958;8.284;2023-05-16T02:40:17;100115.41;;;17.14;66.66
30708;BME280;17458;48.958;8.284;2023-05-16T02:43:01;100121.53;;;17.07;64.98
30708;BME280;17458;48.958;8.284;2023-05-16T02:45:45;100126.03;;;17.08;64.67
30708;BME280;17458;48.958;8.284;2023-05-16T02:48:29;100122.41;;;17.06;65.13
30708;BME280;17458;48.958;8.284;2023-05-16T02:51:15;100118.16;;;17.17;65.54
30708;BME280;17458;48.958;8.284;2023-05-16T02:53:59;100122.53;;;17.12;66.35
30708;BME280;17458;48.958;8.284;2023-05-16T02:56:44;100127.59;;;16.97;65.83
30708;BME280;17458;48.958;8.284;2023-05-16T02:59:28;100119.75;;;17.08;66.62
30708;BME280;17458;48.958;8.284;2023-05-16T03:02:12;100123.00;;;16.52;66.99
30708;BME280;17458;48.958;8.284;2023-05-16T03:04:57;100122.81;;;16.82;66.35
30708;BME280;17458;48.958;8.284;2023-05-16T03:07:41;100121.09;;;16.47;66.98
30708;BME280;17458;48.958;8.284;2023-05-16T03:10:25;100133.50;;;16.43;67.76
30708;BME280;17458;48.958;8.284;2023-05-16T03:13:09;100131.53;;;15.97;68.77
30708;BME280;17458;48.958;8.284;2023-05-16T03:15:53;100128.56;;;16.22;67.46
30708;BME280;17458;48.958;8.284;2023-05-16T03:18:37;100133.47;;;16.40;67.33
30708;BME280;17458;48.958;8.284;2023-05-16T03:21:22;100124.03;;;16.20;66.72
30708;BME280;17458;48.958;8.284;2023-05-16T03:24:07;100127.00;;;16.32;67.00
30708;BME280;17458;48.958;8.284;2023-05-16T03:26:52;100129.41;;;16.20;67.67
30708;BME280;17458;48.958;8.284;2023-05-16T03:29:38;100131.63;;;16.00;67.79
30708;BME280;17458;48.958;8.284;2023-05-16T03:32:22;100135.50;;;16.13;67.79
30708;BME280;17458;48.958;8.284;2023-05-16T03:35:06;100133.00;;;15.84;68.05
30708;BME280;17458;48.958;8.284;2023-05-16T03:37:51;100126.38;;;16.06;67.83
30708;BME280;17458;48.958;8.284;2023-05-16T03:40:36;100138.22;;;15.80;68.14
30708;BME280;17458;48.958;8.284;2023-05-16T03:43:19;100147.09;;;15.77;68.86
30708;BME280;17458;48.958;8.284;2023-05-16T03:46:04;100140.94;;;16.17;67.70
30708;BME280;17458;48.958;8.284;2023-05-16T03:48:48;100142.25;;;16.35;67.65
30708;BME280;17458;48.958;8.284;2023-05-16T03:51:32;100149.59;;;16.42;66.92
30708;BME280;17458;48.958;8.284;2023-05-16T03:54:17;100150.03;;;15.88;67.87
30708;BME280;17458;48.958;8.284;2023-05-16T03:57:01;100151.31;;;16.04;67.91
30708;BME280;17458;48.958;8.284;2023-05-16T03:59:45;100156.06;;;16.15;67.49
30708;BME280;17458;48.958;8.284;2023-05-16T04:02:29;100159.69;;;16.17;67.73
30708;BME280;17458;48.958;8.284;2023-05-16T04:05:13;100161.47;;;16.17;67.86
30708;BME280;17458;48.958;8.284;2023-05-16T04:07:57;100151.97;;;15.93;67.69
30708;BME280;17458;48.958;8.284;2023-05-16T04:10:41;100168.59;;;15.80;67.51
30708;BME280;17458;48.958;8.284;2023-05-16T04:13:25;100170.75;;;15.95;67.27
30708;BME280;17458;48.958;8.284;2023-05-16T04:16:09;100167.09;;;15.91;68.50
30708;BME280;17458;48.958;8.284;2023-05-16T04:18:53;100170.44;;;16.19;67.00
30708;BME280;17458;48.958;8.284;2023-05-16T04:21:37;100176.53;;;16.12;67.25
30708;BME280;17458;48.958;8.284;2023-05-16T04:24:21;100179.53;;;15.89;67.26
30708;BME280;17458;48.958;8.284;2023-05-16T04:27:08;100177.41;;;16.11;67.14
30708;BME280;17458;48.958;8.284;2023-05-16T04:29:52;100177.56;;;15.82;68.13
30708;BME280;17458;48.958;8.284;2023-05-16T04:32:36;100179.66;;;15.94;67.64
30708;BME280;17458;48.958;8.284;2023-05-16T04:35:20;100174.06;;;16.21;67.26
30708;BME280;17458;48.958;8.284;2023-05-16T04:38:05;100174.81;;;16.15;67.45
30708;BME280;17458;48.958;8.284;2023-05-16T04:40:49;100184.00;;;16.25;67.21
30708;BME280;17458;48.958;8.284;2023-05-16T04:43:36;100176.25;;;15.67;68.50
30708;BME280;17458;48.958;8.284;2023-05-16T04:46:20;100170.44;;;15.83;68.21
30708;BME280;17458;48.958;8.284;2023-05-16T04:49:04;100177.16;;;15.67;68.56
30708;BME280;17458;48.958;8.284;2023-05-16T04:51:49;100174.72;;;15.45;68.17
30708;BME280;17458;48.958;8.284;2023-05-16T04:54:33;100185.97;;;15.63;68.46
30708;BME280;17458;48.958;8.284;2023-05-16T04:57:17;100182.28;;;15.59;68.39
30708;BME280;17458;48.958;8.284;2023-05-16T05:00:01;100185.09;;;15.01;70.17
30708;BME280;17458;48.958;8.284;2023-05-16T05:02:48;100188.66;;;15.33;68.38
30708;BME280;17458;48.958;8.284;2023-05-16T05:05:32;100182.97;;;15.21;68.72
30708;BME280;17458;48.958;8.284;2023-05-16T05:08:17;100189.19;;;15.20;69.41
30708;BME280;17458;48.958;8.284;2023-05-16T05:11:01;100195.38;;;15.49;68.58
30708;BME280;17458;48.958;8.284;2023-05-16T05:13:45;100196.72;;;15.65;67.82
30708;BME280;17458;48.958;8.284;2023-05-16T05:16:29;100191.63;;;15.42;68.72
30708;BME280;17458;48.958;8.284;2023-05-16T05:19:13;100199.91;;;15.51;68.52
30708;BME280;17458;48.958;8.284;2023-05-16T05:21:57;100208.78;;;15.50;68.28
30708;BME280;17458;48.958;8.284;2023-05-16T05:24:42;100201.44;;;15.12;69.34
30708;BME280;17458;48.958;8.284;2023-05-16T05:27:26;100212.03;;;15.39;69.11
30708;BME280;17458;48.958;8.284;2023-05-16T05:30:14;100213.81;;;15.38;68.09
30708;BME280;17458;48.958;8.284;2023-05-16T05:33:02;100200.22;;;15.32;67.93
30708;BME280;17458;48.958;8.284;2023-05-16T05:35:46;100212.13;;;15.42;68.82
30708;BME280;17458;48.958;8.284;2023-05-16T05:38:33;100214.63;;;15.36;68.63
30708;BME280;17458;48.958;8.284;2023-05-16T05:41:17;100217.97;;;15.58;67.67
30708;BME280;17458;48.958;8.284;2023-05-16T05:44:01;100220.78;;;15.33;68.39
30708;BME280;17458;48.958;8.284;2023-05-16T05:46:45;100228.84;;;15.35;68.76
30708;BME280;17458;48.958;8.284;2023-05-16T05:49:29;100226.81;;;14.96;69.87
30708;BME280;17458;48.958;8.284;2023-05-16T05:52:14;100221.81;;;15.38;68.34
30708;BME280;17458;48.958;8.284;2023-05-16T05:54:58;100224.38;;;15.34;68.22
30708;BME280;17458;48.958;8.284;2023-05-16T05:57:42;100230.06;;;15.16;68.34
30708;BME280;17458;48.958;8.284;2023-05-16T06:00:26;100229.72;;;15.34;68.46
30708;BME280;17458;48.958;8.284;2023-05-16T06:03:12;100227.19;;;15.38;68.24
30708;BME280;17458;48.958;8.284;2023-05-16T06:05:57;100232.34;;;15.62;67.56
30708;BME280;17458;48.958;8.284;2023-05-16T06:08:41;100238.09;;;15.16;69.23
30708;BME280;17458;48.958;8.284;2023-05-16T06:11:24;100240.31;;;15.60;68.00
30708;BME280;17458;48.958;8.284;2023-05-16T06:14:08;100238.56;;;15.31;68.95
30708;BME280;17458;48.958;8.284;2023-05-16T06:16:52;100242.31;;;15.08;69.28
30708;BME280;17458;48.958;8.284;2023-05-16T06:19:36;100238.28;;;14.92;68.95
30708;BME280;17458;48.958;8.284;2023-05-16T06:22:20;100242.00;;;14.97;68.80
30708;BME280;17458;48.958;8.284;2023-05-16T06:25:04;100246.50;;;14.98;69.02
30708;BME280;17458;48.958;8.284;2023-05-16T06:27:49;100254.38;;;14.94;68.58
30708;BME280;17458;48.958;8.284;2023-05-16T06:30:33;100246.22;;;15.19;68.76
30708;BME280;17458;48.958;8.284;2023-05-16T06:33:17;100245.19;;;14.84;69.70
30708;BME280;17458;48.958;8.284;2023-05-16T06:36:02;100256.25;;;14.96;69.85
30708;BME280;17458;48.958;8.284;2023-05-16T06:38:45;100262.13;;;14.84;70.05
30708;BME280;17458;48.958;8.284;2023-05-16T06:41:30;100257.75;;;14.88;69.69
30708;BME280;17458;48.958;8.284;2023-05-16T06:44:13;100265.13;;;14.67;69.78
30708;BME280;17458;48.958;8.284;2023-05-16T06:46:58;100269.63;;;14.96;68.42
30708;BME280;17458;48.958;8.284;2023-05-16T06:49:42;100262.81;;;14.79;69.18
30708;BME280;17458;48.958;8.284;2023-05-16T06:52:26;100272.38;;;14.99;69.01
30708;BME280;17458;48.958;8.284;2023-05-16T06:55:10;100272.56;;;15.05;68.23
30708;BME280;17458;48.958;8.284;2023-05-16T06:57:55;100274.63;;;15.14;68.63
30708;BME280;17458;48.958;8.284;2023-05-16T07:00:39;100280.34;;;15.26;68.69
30708;BME280;17458;48.958;8.284;2023-05-16T07:03:24;100280.19;;;15.21;68.11
30708;BME280;17458;48.958;8.284;2023-05-16T07:06:08;100290.56;;;15.11;67.87
30708;BME280;17458;48.958;8.284;2023-05-16T07:08:52;100281.47;;;15.34;68.10
30708;BME280;17458;48.958;8.284;2023-05-16T07:11:36;100283.59;;;15.46;67.37
30708;BME280;17458;48.958;8.284;2023-05-16T07:14:20;100283.13;;;15.31;67.75
30708;BME280;17458;48.958;8.284;2023-05-16T07:17:04;100290.50;;;15.38;67.20
30708;BME280;17458;48.958;8.284;2023-05-16T07:19:48;100280.94;;;15.47;67.23
30708;BME280;17458;48.958;8.284;2023-05-16T07:22:33;100286.72;;;15.31;67.32
30708;BME280;17458;48.958;8.284;2023-05-16T07:25:17;100296.09;;;15.17;67.27
30708;BME280;17458;48.958;8.284;2023-05-16T07:28:01;100292.81;;;15.25;67.34
30708;BME280;17458;48.958;8.284;2023-05-16T07:30:45;100288.59;;;15.05;67.33
30708;BME280;17458;48.958;8.284;2023-05-16T07:33:29;100290.25;;;15.00;67.53
30708;BME280;17458;48.958;8.284;2023-05-16T07:36:13;100294.06;;;15.38;66.50
30708;BME280;17458;48.958;8.284;2023-05-16T07:38:58;100299.53;;;15.41;65.77
30708;BME280;17458;48.958;8.284;2023-05-16T07:41:42;100306.28;;;15.29;65.79
30708;BME280;17458;48.958;8.284;2023-05-16T07:44:26;100315.47;;;15.38;65.31
30708;BME280;17458;48.958;8.284;2023-05-16T07:47:09;100304.69;;;15.07;65.86
30708;BME280;17458;48.958;8.284;2023-05-16T07:49:55;100306.41;;;15.05;65.34
30708;BME280;17458;48.958;8.284;2023-05-16T07:52:39;100307.13;;;15.28;64.94
30708;BME280;17458;48.958;8.284;2023-05-16T07:55:23;100308.72;;;14.93;65.98
30708;BME280;17458;48.958;8.284;2023-05-16T07:58:07;100306.31;;;14.73;66.45
30708;BME280;17458;48.958;8.284;2023-05-16T08:00:51;100312.75;;;15.37;64.80
30708;BME280;17458;48.958;8.284;2023-05-16T08:03:35;100309.44;;;15.15;65.27
30708;BME280;17458;48.958;8.284;2023-05-16T08:06:20;100306.81;;;15.47;64.60
30708;BME280;17458;48.958;8.284;2023-05-16T08:09:04;100311.09;;;15.40;64.43
30708;BME280;17458;48.958;8.284;2023-05-16T08:11:48;100315.47;;;15.38;64.83
30708;BME280;17458;48.958;8.284;2023-05-16T08:14:32;100316.03;;;15.27;64.44
30708;BME280;17458;48.958;8.284;2023-05-16T08:17:16;100312.84;;;15.68;63.60
30708;BME280;17458;48.958;8.284;2023-05-16T08:20:00;100322.88;;;15.47;62.80
30708;BME280;17458;48.958;8.284;2023-05-16T08:22:44;100325.03;;;15.30;63.99
30708;BME280;17458;48.958;8.284;2023-05-16T08:25:28;100319.06;;;15.67;62.50
30708;BME280;17458;48.958;8.284;2023-05-16T08:28:12;100311.69;;;15.32;62.94
30708;BME280;17458;48.958;8.284;2023-05-16T08:30:56;100321.75;;;15.39;62.63
30708;BME280;17458;48.958;8.284;2023-05-16T08:33:40;100322.78;;;15.74;62.13
30708;BME280;17458;48.958;8.284;2023-05-16T08:36:24;100323.19;;;15.86;61.27
30708;BME280;17458;48.958;8.284;2023-05-16T08:39:09;100321.72;;;15.67;62.18
30708;BME280;17458;48.958;8.284;2023-05-16T08:41:54;100330.53;;;15.63;62.02
30708;BME280;17458;48.958;8.284;2023-05-16T08:44:39;100324.75;;;15.79;61.83
30708;BME280;17458;48.958;8.284;2023-05-16T08:47:23;100325.13;;;15.93;60.67
30708;BME280;17458;48.958;8.284;2023-05-16T08:50:09;100330.31;;;15.55;61.46
30708;BME280;17458;48.958;8.284;2023-05-16T08:52:53;100329.63;;;15.34;62.01
30708;BME280;17458;48.958;8.284;2023-05-16T08:55:38;100332.84;;;15.81;61.26
30708;BME280;17458;48.958;8.284;2023-05-16T08:58:24;100332.53;;;15.70;61.43
30708;BME280;17458;48.958;8.284;2023-05-16T09:01:08;100339.59;;;15.98;61.42
30708;BME280;17458;48.958;8.284;2023-05-16T09:03:53;100334.75;;;15.55;61.68
30708;BME280;17458;48.958;8.284;2023-05-16T09:06:38;100329.72;;;15.37;61.88
30708;BME280;17458;48.958;8.284;2023-05-16T09:09:22;100337.44;;;15.27;62.32
30708;BME280;17458;48.958;8.284;2023-05-16T09:12:07;100333.28;;;15.66;62.52
30708;BME280;17458;48.958;8.284;2023-05-16T09:14:51;100344.47;;;15.53;61.74
30708;BME280;17458;48.958;8.284;2023-05-16T09:17:43;100342.72;;;15.83;61.58
30708;BME280;17458;48.958;8.284;2023-05-16T09:20:27;100344.66;;;15.59;61.40
30708;BME280;17458;48.958;8.284;2023-05-16T09:23:12;100350.44;;;15.16;62.68
30708;BME280;17458;48.958;8.284;2023-05-16T09:25:59;100347.44;;;15.34;62.75
30708;BME280;17458;48.958;8.284;2023-05-16T09:28:43;100359.06;;;15.63;61.64
30708;BME280;17458;48.958;8.284;2023-05-16T09:31:28;100352.09;;;15.11;63.69
30708;BME280;17458;48.958;8.284;2023-05-16T09:34:21;100363.59;;;15.08;63.41
30708;BME280;17458;48.958;8.284;2023-05-16T09:37:05;100363.88;;;15.17;63.30
30708;BME280;17458;48.958;8.284;2023-05-16T09:39:50;100369.44;;;15.23;63.67
30708;BME280;17458;48.958;8.284;2023-05-16T09:42:35;100368.22;;;14.85;64.21
30708;BME280;17458;48.958;8.284;2023-05-16T09:45:19;100370.16;;;14.91;64.16
30708;BME280;17458;48.958;8.284;2023-05-16T09:48:04;100376.06;;;14.81;64.68
30708;BME280;17458;48.958;8.284;2023-05-16T09:50:51;100373.06;;;15.25;63.46
30708;BME280;17458;48.958;8.284;2023-05-16T09:53:36;100368.94;;;15.08;64.70
30708;BME280;17458;48.958;8.284;2023-05-16T09:56:21;100376.91;;;15.07;63.83
30708;BME280;17458;48.958;8.284;2023-05-16T09:59:09;100376.34;;;15.45;63.40
30708;BME280;17458;48.958;8.284;2023-05-16T10:01:56;100373.97;;;15.26;63.09
30708;BME280;17458;48.958;8.284;2023-05-16T10:04:41;100365.47;;;15.39;63.39
30708;BME280;17458;48.958;8.284;2023-05-16T10:07:25;100369.75;;;15.06;63.10
30708;BME280;17458;48.958;8.284;2023-05-16T10:10:12;100372.00;;;15.49;62.52
30708;BME280;17458;48.958;8.284;2023-05-16T10:12:58;100383.03;;;15.58;61.57
30708;BME280;17458;48.958;8.284;2023-05-16T10:15:44;100379.63;;;15.64;61.58
30708;BME280;17458;48.958;8.284;2023-05-16T10:18:30;100373.34;;;15.93;59.81
30708;BME280;17458;48.958;8.284;2023-05-16T10:21:16;100372.44;;;15.92;59.30
30708;BME280;17458;48.958;8.284;2023-05-16T10:24:02;100362.53;;;16.54;58.22
30708;BME280;17458;48.958;8.284;2023-05-16T10:26:50;100383.88;;;15.87;58.39
30708;BME280;17458;48.958;8.284;2023-05-16T10:29:36;100376.28;;;16.34;59.27
30708;BME280;17458;48.958;8.284;2023-05-16T10:32:22;100366.84;;;16.16;59.26
30708;BME280;17458;48.958;8.284;2023-05-16T10:35:08;100353.50;;;15.86;58.90
30708;BME280;17458;48.958;8.284;2023-05-16T10:37:53;100379.41;;;15.86;59.51
30708;BME280;17458;48.958;8.284;2023-05-16T10:40:39;100395.50;;;15.87;58.58
30708;BME280;17458;48.958;8.284;2023-05-16T10:43:28;100387.44;;;15.86;59.34
30708;BME280;17458;48.958;8.284;2023-05-16T10:46:13;100413.75;;;15.42;59.95
30708;BME280;17458;48.958;8.284;2023-05-16T10:48:57;100394.38;;;15.51;60.33
30708;BME280;17458;48.958;8.284;2023-05-16T10:51:41;100394.38;;;15.22;61.23
30708;BME280;17458;48.958;8.284;2023-05-16T10:57:22;100403.47;;;15.84;60.44
30708;BME280;17458;48.958;8.284;2023-05-16T11:00:07;100403.53;;;15.31;59.82
30708;BME280;17458;48.958;8.284;2023-05-16T11:02:52;100403.50;;;14.75;61.66
30708;BME280;17458;48.958;8.284;2023-05-16T11:05:50;100403.03;;;15.14;60.43
30708;BME280;17458;48.958;8.284;2023-05-16T11:08:34;100412.66;;;15.09;61.25
30708;BME280;17458;48.958;8.284;2023-05-16T11:11:42;100407.97;;;15.30;61.84
30708;BME280;17458;48.958;8.284;2023-05-16T11:14:33;100404.97;;;14.66;61.93
30708;BME280;17458;48.958;8.284;2023-05-16T11:17:20;100411.81;;;15.38;61.60
30708;BME280;17458;48.958;8.284;2023-05-16T11:20:24;100419.91;;;15.40;60.68
30708;BME280;17458;48.958;8.284;2023-05-16T11:26:02;100420.66;;;14.82;60.72
30708;BME280;17458;48.958;8.284;2023-05-16T11:28:48;100432.97;;;15.04;60.61
30708;BME280;17458;48.958;8.284;2023-05-16T11:31:33;100419.34;;;15.23;60.32
30708;BME280;17458;48.958;8.284;2023-05-16T11:34:18;100428.00;;;14.87;60.11
30708;BME280;17458;48.958;8.284;2023-05-16T11:37:05;100420.06;;;15.46;59.12
30708;BME280;17458;48.958;8.284;2023-05-16T11:39:49;100425.66;;;15.25;58.80
30708;BME280;17458;48.958;8.284;2023-05-16T11:42:39;100433.56;;;15.49;59.87
30708;BME280;17458;48.958;8.284;2023-05-16T11:45:24;100428.66;;;15.07;59.14
30708;BME280;17458;48.958;8.284;2023-05-16T11:48:08;100435.13;;;14.87;59.35
30708;BME280;17458;48.958;8.284;2023-05-16T11:50:52;100436.72;;;15.09;58.25
30708;BME280;17458;48.958;8.284;2023-05-16T11:53:37;100423.47;;;15.12;58.50
30708;BME280;17458;48.958;8.284;2023-05-16T11:56:22;100431.59;;;15.16;58.74
30708;BME280;17458;48.958;8.284;2023-05-16T11:59:07;100422.22;;;15.02;59.15
30708;BME280;17458;48.958;8.284;2023-05-16T12:01:51;100433.00;;;15.32;57.73
30708;BME280;17458;48.958;8.284;2023-05-16T12:04:35;100435.63;;;15.29;58.79
30708;BME280;17458;48.958;8.284;2023-05-16T12:07:27;100428.97;;;15.45;58.77
30708;BME280;17458;48.958;8.284;2023-05-16T12:10:13;100435.94;;;15.67;58.23
30708;BME280;17458;48.958;8.284;2023-05-16T12:12:57;100443.75;;;15.89;58.52
30708;BME280;17458;48.958;8.284;2023-05-16T12:15:42;100452.31;;;14.95;60.10
30708;BME280;17458;48.958;8.284;2023-05-16T12:18:26;100455.09;;;14.98;60.43
30708;BME280;17458;48.958;8.284;2023-05-16T12:21:11;100453.38;;;15.00;59.46
30708;BME280;17458;48.958;8.284;2023-05-16T12:23:55;100454.00;;;14.93;59.25
30708;BME280;17458;48.958;8.284;2023-05-16T12:26:42;100466.41;;;14.91;59.38
30708;BME280;17458;48.958;8.284;2023-05-16T12:29:27;100466.97;;;14.81;60.29
30708;BME280;17458;48.958;8.284;2023-05-16T12:32:11;100459.72;;;15.04;60.03
30708;BME280;17458;48.958;8.284;2023-05-16T12:34:55;100464.94;;;14.99;59.56
30708;BME280;17458;48.958;8.284;2023-05-16T12:37:42;100470.25;;;14.72;60.64
30708;BME280;17458;48.958;8.284;2023-05-16T12:40:29;100465.59;;;15.19;59.82
30708;BME280;17458;48.958;8.284;2023-05-16T12:43:15;100478.31;;;14.99;60.35
30708;BME280;17458;48.958;8.284;2023-05-16T12:45:59;100483.63;;;14.74;60.25
30708;BME280;17458;48.958;8.284;2023-05-16T12:48:44;100478.31;;;14.99;60.50
30708;BME280;17458;48.958;8.284;2023-05-16T12:51:30;100472.06;;;14.73;60.29
30708;BME280;17458;48.958;8.284;2023-05-16T12:54:15;100484.09;;;14.86;59.13
30708;BME280;17458;48.958;8.284;2023-05-16T12:56:59;100484.31;;;15.19;59.01
30708;BME280;17458;48.958;8.284;2023-05-16T12:59:43;100485.56;;;15.03;59.27
30708;BME280;17458;48.958;8.284;2023-05-16T13:02:27;100491.75;;;15.01;59.05
30708;BME280;17458;48.958;8.284;2023-05-16T13:05:11;100489.72;;;15.20;58.53
30708;BME280;17458;48.958;8.284;2023-05-16T13:07:55;100494.81;;;15.13;57.99
30708;BME280;17458;48.958;8.284;2023-05-16T13:10:39;100499.69;;;14.99;58.74
30708;BME280;17458;48.958;8.284;2023-05-16T13:13:23;100509.53;;;15.25;57.94
30708;BME280;17458;48.958;8.284;2023-05-16T13:16:07;100497.78;;;15.49;56.78
30708;BME280;17458;48.958;8.284;2023-05-16T13:18:53;100510.19;;;15.20;56.49
30708;BME280;17458;48.958;8.284;2023-05-16T13:21:37;100514.06;;;15.28;56.18
30708;BME280;17458;48.958;8.284;2023-05-16T13:24:20;100521.47;;;14.84;56.35
30708;BME280;17458;48.958;8.284;2023-05-16T13:27:04;100523.44;;;15.15;56.42
30708;BME280;17458;48.958;8.284;2023-05-16T13:29:48;100535.31;;;14.73;56.74
30708;BME280;17458;48.958;8.284;2023-05-16T13:32:33;100522.69;;;14.69;56.46
30708;BME280;17458;48.958;8.284;2023-05-16T13:35:17;100519.72;;;14.61;55.24
30708;BME280;17458;48.958;8.284;2023-05-16T13:38:01;100531.91;;;14.53;55.17
30708;BME280;17458;48.958;8.284;2023-05-16T13:40:46;100530.66;;;14.43;54.84
30708;BME280;17458;48.958;8.284;2023-05-16T13:43:30;100526.03;;;14.63;54.51
30708;BME280;17458;48.958;8.284;2023-05-16T13:46:14;100523.97;;;14.80;54.03
30708;BME280;17458;48.958;8.284;2023-05-16T13:48:58;100514.91;;;14.51;53.45
30708;BME280;17458;48.958;8.284;2023-05-16T13:51:42;100519.28;;;14.73;52.84
30708;BME280;17458;48.958;8.284;2023-05-16T13:54:26;100515.47;;;14.20;53.45
30708;BME280;17458;48.958;8.284;2023-05-16T13:57:10;100517.28;;;14.67;51.64
30708;BME280;17458;48.958;8.284;2023-05-16T13:59:54;100526.53;;;14.29;52.52
30708;BME280;17458;48.958;8.284;2023-05-16T14:02:43;100509.75;;;14.81;51.74
30708;BME280;17458;48.958;8.284;2023-05-16T14:05:27;100509.06;;;15.12;51.45
30708;BME280;17458;48.958;8.284;2023-05-16T14:08:11;100508.34;;;15.70;50.32
30708;BME280;17458;48.958;8.284;2023-05-16T14:10:55;100504.56;;;15.38;50.62
30708;BME280;17458;48.958;8.284;2023-05-16T14:13:39;100505.72;;;15.46;51.03
30708;BME280;17458;48.958;8.284;2023-05-16T14:16:23;100497.19;;;15.84;50.58
30708;BME280;17458;48.958;8.284;2023-05-16T14:19:07;100511.06;;;16.00;48.17
30708;BME280;17458;48.958;8.284;2023-05-16T14:21:51;100508.22;;;15.95;49.62
30708;BME280;17458;48.958;8.284;2023-05-16T14:24:34;100507.13;;;15.88;48.51
30708;BME280;17458;48.958;8.284;2023-05-16T14:27:19;100505.47;;;16.22;48.76
30708;BME280;17458;48.958;8.284;2023-05-16T14:30:03;100505.38;;;16.19;48.84